sensor_id;sensor_type;location;lat;lon;timestamp;temperature;humidity
47368;DHT22;34646;47.964;7.982;2023-04-19T00:06:29;16.60;90.10
47368;DHT22;34646;47.964;7.982;2023-04-19T00:12:29;17.00;90.20
47368;DHT22;34646;47.964;7.982;2023-04-19T00:18:30;16.90;90.20
47368;DHT22;34646;47.964;7.982;2023-04-19T00:30:32;16.70;90.20
47368;DHT22;34646;47.964;7.982;2023-04-19T00:36:32;16.80;85.70
47368;DHT22;34646;47.964;7.982;2023-04-19T00:42:34;16.70;86.60
47368;DHT22;34646;47.964;7.982;2023-04-19T00:48:35;16.80;90.20
47368;DHT22;34646;47.964;7.982;2023-04-19T00:54:36;16.50;90.20
47368;DHT22;34646;47.964;7.982;2023-04-19T01:00:37;16.50;85.20
47368;DHT22;34646;47.964;7.982;2023-04-19T01:06:39;16.70;90.20
47368;DHT22;34646;47.964;7.982;2023-04-19T01:12:40;16.80;90.20
47368;DHT22;34646;47.964;7.982;2023-04-19T01:18:41;16.90;90.20
47368;DHT22;34646;47.964;7.982;2023-04-19T01:30:43;16.70;90.20
47368;DHT22;34646;47.964;7.982;2023-04-19T01:36:43;16.70;90.20
47368;DHT22;34646;47.964;7.982;2023-04-19T01:42:45;16.60;90.20
47368;DHT22;34646;47.964;7.982;2023-04-19T01:48:46;16.70;90.20
47368;DHT22;34646;47.964;7.982;2023-04-19T01:54:47;16.50;90.10
47368;DHT22;34646;47.964;7.982;2023-04-19T02:00:49;17.00;82.30
47368;DHT22;34646;47.964;7.982;2023-04-19T02:06:50;16.70;90.20
47368;DHT22;34646;47.964;7.982;2023-04-19T02:18:51;16.80;90.30
47368;DHT22;34646;47.964;7.982;2023-04-19T02:24:52;16.60;90.20
47368;DHT22;34646;47.964;7.982;2023-04-19T02:30:53;16.50;90.20
47368;DHT22;34646;47.964;7.982;2023-04-19T02:36:54;16.40;90.20
47368;DHT22;34646;47.964;7.982;2023-04-19T02:42:54;16.10;90.10
47368;DHT22;34646;47.964;7.982;2023-04-19T02:48:55;16.20;90.10
47368;DHT22;34646;47.964;7.982;2023-04-19T02:54:56;16.30;84.10
47368;DHT22;34646;47.964;7.982;2023-04-19T03:00:57;16.30;90.10
47368;DHT22;34646;47.964;7.982;2023-04-19T03:06:58;16.60;90.20
47368;DHT22;34646;47.964;7.982;2023-04-19T03:12:59;16.80;90.30
47368;DHT22;34646;47.964;7.982;2023-04-19T03:19:00;16.60;90.20
47368;DHT22;34646;47.964;7.982;2023-04-19T03:31:08;16.40;90.20
47368;DHT22;34646;47.964;7.982;2023-04-19T03:37:10;16.50;82.80
47368;DHT22;34646;47.964;7.982;2023-04-19T03:43:11;16.70;90.20
47368;DHT22;34646;47.964;7.982;2023-04-19T03:49:13;16.40;90.20
47368;DHT22;34646;47.964;7.982;2023-04-19T03:55:17;16.30;90.20
47368;DHT22;34646;47.964;7.982;2023-04-19T04:01:18;16.80;90.30
47368;DHT22;34646;47.964;7.982;2023-04-19T04:07:19;16.20;90.10
47368;DHT22;34646;47.964;7.982;2023-04-19T04:13:20;16.60;90.20
47368;DHT22;34646;47.964;7.982;2023-04-19T04:19:31;16.50;90.10
47368;DHT22;34646;47.964;7.982;2023-04-19T04:31:38;16.50;90.10
47368;DHT22;34646;47.964;7.982;2023-04-19T04:37:38;16.20;90.00
47368;DHT22;34646;47.964;7.982;2023-04-19T04:43:39;16.10;90.10
47368;DHT22;34646;47.964;7.982;2023-04-19T04:49:41;16.30;82.50
47368;DHT22;34646;47.964;7.982;2023-04-19T04:55:42;16.60;90.50
47368;DHT22;34646;47.964;7.982;2023-04-19T05:01:42;16.20;90.50
47368;DHT22;34646;47.964;7.982;2023-04-19T05:07:44;16.70;90.60
47368;DHT22;34646;47.964;7.982;2023-04-19T05:13:45;16.40;90.50
47368;DHT22;34646;47.964;7.982;2023-04-19T05:19:47;16.60;90.50
47368;DHT22;34646;47.964;7.982;2023-04-19T05:25:48;16.10;90.40
47368;DHT22;34646;47.964;7.982;2023-04-19T05:31:49;16.60;90.50
47368;DHT22;34646;47.964;7.982;2023-04-19T05:37:59;16.50;90.50
47368;DHT22;34646;47.964;7.982;2023-04-19T05:44:00;16.70;90.50
47368;DHT22;34646;47.964;7.982;2023-04-19T05:50:02;16.60;87.70
47368;DHT22;34646;47.964;7.982;2023-04-19T05:56:10;16.30;90.50
47368;DHT22;34646;47.964;7.982;2023-04-19T06:08:12;16.70;90.50
47368;DHT22;34646;47.964;7.982;2023-04-19T06:14:15;16.60;90.50
47368;DHT22;34646;47.964;7.982;2023-04-19T06:20:16;16.40;84.00
47368;DHT22;34646;47.964;7.982;2023-04-19T06:26:17;16.60;90.50
47368;DHT22;34646;47.964;7.982;2023-04-19T06:32:17;16.50;90.50
47368;DHT22;34646;47.964;7.982;2023-04-19T06:38:18;16.70;90.60
47368;DHT22;34646;47.964;7.982;2023-04-19T06:44:19;16.80;90.60
47368;DHT22;34646;47.964;7.982;2023-04-19T06:50:20;16.60;90.60
47368;DHT22;34646;47.964;7.982;2023-04-19T07:02:40;16.90;90.60
47368;DHT22;34646;47.964;7.982;2023-04-19T07:08:41;16.50;86.50
47368;DHT22;34646;47.964;7.982;2023-04-19T07:14:42;16.60;90.50
47368;DHT22;34646;47.964;7.982;2023-04-19T07:20:42;16.70;90.50
47368;DHT22;34646;47.964;7.982;2023-04-19T07:32:47;16.40;90.40
47368;DHT22;34646;47.964;7.982;2023-04-19T07:38:47;16.60;90.50
47368;DHT22;34646;47.964;7.982;2023-04-19T07:44:48;16.40;90.40
47368;DHT22;34646;47.964;7.982;2023-04-19T07:50:49;16.60;90.50
47368;DHT22;34646;47.964;7.982;2023-04-19T07:56:49;16.80;90.60
47368;DHT22;34646;47.964;7.982;2023-04-19T08:08:51;16.50;90.40
47368;DHT22;34646;47.964;7.982;2023-04-19T08:14:52;16.70;90.50
47368;DHT22;34646;47.964;7.982;2023-04-19T08:20:53;16.60;90.40
47368;DHT22;34646;47.964;7.982;2023-04-19T08:26:53;16.40;90.40
47368;DHT22;34646;47.964;7.982;2023-04-19T08:32:54;16.50;90.40
47368;DHT22;34646;47.964;7.982;2023-04-19T08:44:56;16.50;90.40
47368;DHT22;34646;47.964;7.982;2023-04-19T08:51:00;16.60;90.40
47368;DHT22;34646;47.964;7.982;2023-04-19T08:57:01;16.40;90.30
47368;DHT22;34646;47.964;7.982;2023-04-19T09:03:03;16.60;83.00
47368;DHT22;34646;47.964;7.982;2023-04-19T09:09:23;16.70;90.40
47368;DHT22;34646;47.964;7.982;2023-04-19T09:15:38;16.50;90.40
47368;DHT22;34646;47.964;7.982;2023-04-19T09:21:39;16.50;90.40
47368;DHT22;34646;47.964;7.982;2023-04-19T09:27:40;16.40;90.40
47368;DHT22;34646;47.964;7.982;2023-04-19T09:33:40;16.00;90.30
47368;DHT22;34646;47.964;7.982;2023-04-19T09:39:41;16.50;90.40
47368;DHT22;34646;47.964;7.982;2023-04-19T09:45:44;16.40;90.30
47368;DHT22;34646;47.964;7.982;2023-04-19T09:51:52;16.60;90.30
47368;DHT22;34646;47.964;7.982;2023-04-19T10:03:55;16.40;90.30
47368;DHT22;34646;47.964;7.982;2023-04-19T10:09:57;16.70;90.30
47368;DHT22;34646;47.964;7.982;2023-04-19T10:22:01;16.70;90.00
47368;DHT22;34646;47.964;7.982;2023-04-19T10:28:04;16.50;89.60
47368;DHT22;34646;47.964;7.982;2023-04-19T10:34:05;16.90;89.50
47368;DHT22;34646;47.964;7.982;2023-04-19T10:40:06;16.70;89.40
47368;DHT22;34646;47.964;7.982;2023-04-19T10:46:53;17.00;89.50
47368;DHT22;34646;47.964;7.982;2023-04-19T10:52:29;16.80;89.50
47368;DHT22;34646;47.964;7.982;2023-04-19T11:10:31;17.10;89.60
47368;DHT22;34646;47.964;7.982;2023-04-19T11:16:32;16.90;89.50
47368;DHT22;34646;47.964;7.982;2023-04-19T11:22:37;17.20;89.70
47368;DHT22;34646;47.964;7.982;2023-04-19T11:28:38;17.00;89.60
47368;DHT22;34646;47.964;7.982;2023-04-19T11:34:39;17.30;89.80
47368;DHT22;34646;47.964;7.982;2023-04-19T11:40:41;17.00;89.60
47368;DHT22;34646;47.964;7.982;2023-04-19T11:46:41;17.50;89.90
47368;DHT22;34646;47.964;7.982;2023-04-19T11:52:48;17.20;89.90
47368;DHT22;34646;47.964;7.982;2023-04-19T11:58:48;17.30;90.00
47368;DHT22;34646;47.964;7.982;2023-04-19T12:04:50;17.20;90.00
47368;DHT22;34646;47.964;7.982;2023-04-19T12:10:55;17.60;90.20
47368;DHT22;34646;47.964;7.982;2023-04-19T12:17:11;17.00;90.10
47368;DHT22;34646;47.964;7.982;2023-04-19T12:23:13;17.40;90.20
47368;DHT22;34646;47.964;7.982;2023-04-19T12:29:15;16.80;90.10
47368;DHT22;34646;47.964;7.982;2023-04-19T12:35:16;17.30;90.20
47368;DHT22;34646;47.964;7.982;2023-04-19T12:41:17;16.80;90.20
47368;DHT22;34646;47.964;7.982;2023-04-19T12:47:18;17.50;90.40
47368;DHT22;34646;47.964;7.982;2023-04-19T12:53:19;17.40;84.80
47368;DHT22;34646;47.964;7.982;2023-04-19T12:59:20;16.90;90.10
47368;DHT22;34646;47.964;7.982;2023-04-19T13:05:21;17.20;90.20
47368;DHT22;34646;47.964;7.982;2023-04-19T13:11:22;17.10;90.20
47368;DHT22;34646;47.964;7.982;2023-04-19T13:17:23;17.50;90.20
47368;DHT22;34646;47.964;7.982;2023-04-19T13:29:24;17.80;90.40
47368;DHT22;34646;47.964;7.982;2023-04-19T13:35:25;17.10;90.40
47368;DHT22;34646;47.964;7.982;2023-04-19T13:41:26;17.60;90.50
47368;DHT22;34646;47.964;7.982;2023-04-19T13:47:26;17.40;90.60
47368;DHT22;34646;47.964;7.982;2023-04-19T13:53:27;17.10;90.60
47368;DHT22;34646;47.964;7.982;2023-04-19T13:59:28;17.50;90.30
47368;DHT22;34646;47.964;7.982;2023-04-19T14:05:29;17.40;90.90
47368;DHT22;34646;47.964;7.982;2023-04-19T14:11:30;17.10;91.00
47368;DHT22;34646;47.964;7.982;2023-04-19T14:17:31;17.10;91.00
47368;DHT22;34646;47.964;7.982;2023-04-19T14:23:32;17.30;91.10
47368;DHT22;34646;47.964;7.982;2023-04-19T14:29:33;17.60;91.10
47368;DHT22;34646;47.964;7.982;2023-04-19T14:35:34;17.60;91.20
47368;DHT22;34646;47.964;7.982;2023-04-19T14:41:34;17.30;91.00
47368;DHT22;34646;47.964;7.982;2023-04-19T14:47:35;17.50;91.20
47368;DHT22;34646;47.964;7.982;2023-04-19T14:53:36;17.60;91.20
47368;DHT22;34646;47.964;7.982;2023-04-19T15:11:38;16.80;91.20
47368;DHT22;34646;47.964;7.982;2023-04-19T15:29:42;17.70;91.40
47368;DHT22;34646;47.964;7.982;2023-04-19T15:35:49;17.40;84.40
47368;DHT22;34646;47.964;7.982;2023-04-19T15:41:50;17.60;91.40
47368;DHT22;34646;47.964;7.982;2023-04-19T15:47:51;17.40;91.30
47368;DHT22;34646;47.964;7.982;2023-04-19T15:59:53;17.70;91.40
47368;DHT22;34646;47.964;7.982;2023-04-19T16:11:55;17.60;91.60
47368;DHT22;34646;47.964;7.982;2023-04-19T16:17:55;17.40;91.50
47368;DHT22;34646;47.964;7.982;2023-04-19T16:23:56;17.70;91.60
47368;DHT22;34646;47.964;7.982;2023-04-19T16:29:57;17.60;91.60
47368;DHT22;34646;47.964;7.982;2023-04-19T16:35:57;17.30;91.50
47368;DHT22;34646;47.964;7.982;2023-04-19T16:47:59;17.40;91.70
47368;DHT22;34646;47.964;7.982;2023-04-19T16:53:59;17.50;91.80
47368;DHT22;34646;47.964;7.982;2023-04-19T17:00:00;17.60;91.90
47368;DHT22;34646;47.964;7.982;2023-04-19T17:06:01;17.20;92.00
47368;DHT22;34646;47.964;7.982;2023-04-19T17:12:02;17.30;92.20
47368;DHT22;34646;47.964;7.982;2023-04-19T17:18:03;18.00;91.90
47368;DHT22;34646;47.964;7.982;2023-04-19T17:24:04;17.50;92.50
47368;DHT22;34646;47.964;7.982;2023-04-19T17:30:06;17.20;92.30
47368;DHT22;34646;47.964;7.982;2023-04-19T17:36:07;17.20;92.20
47368;DHT22;34646;47.964;7.982;2023-04-19T17:42:07;17.30;89.80
47368;DHT22;34646;47.964;7.982;2023-04-19T17:48:08;17.50;92.30
47368;DHT22;34646;47.964;7.982;2023-04-19T17:54:09;17.70;92.40
47368;DHT22;34646;47.964;7.982;2023-04-19T18:06:11;17.40;92.40
47368;DHT22;34646;47.964;7.982;2023-04-19T18:12:12;17.40;92.30
47368;DHT22;34646;47.964;7.982;2023-04-19T18:18:13;17.20;92.30
47368;DHT22;34646;47.964;7.982;2023-04-19T18:24:13;17.40;92.30
47368;DHT22;34646;47.964;7.982;2023-04-19T18:30:15;17.50;92.30
47368;DHT22;34646;47.964;7.982;2023-04-19T18:36:15;17.20;92.30
47368;DHT22;34646;47.964;7.982;2023-04-19T18:48:17;17.30;92.40
47368;DHT22;34646;47.964;7.982;2023-04-19T18:54:18;16.90;92.40
47368;DHT22;34646;47.964;7.982;2023-04-19T19:00:19;17.40;92.60
47368;DHT22;34646;47.964;7.982;2023-04-19T19:06:21;17.40;92.70
47368;DHT22;34646;47.964;7.982;2023-04-19T19:12:21;17.00;88.50
47368;DHT22;34646;47.964;7.982;2023-04-19T19:18:22;17.20;92.80
47368;DHT22;34646;47.964;7.982;2023-04-19T19:24:23;17.40;92.80
47368;DHT22;34646;47.964;7.982;2023-04-19T19:30:24;17.30;88.20
47368;DHT22;34646;47.964;7.982;2023-04-19T19:36:27;17.60;92.90
47368;DHT22;34646;47.964;7.982;2023-04-19T19:42:28;17.20;92.90
47368;DHT22;34646;47.964;7.982;2023-04-19T19:48:28;17.20;92.80
47368;DHT22;34646;47.964;7.982;2023-04-19T19:54:29;17.70;93.00
47368;DHT22;34646;47.964;7.982;2023-04-19T20:00:29;17.00;92.90
47368;DHT22;34646;47.964;7.982;2023-04-19T20:06:30;17.40;93.00
47368;DHT22;34646;47.964;7.982;2023-04-19T20:12:32;17.00;92.80
47368;DHT22;34646;47.964;7.982;2023-04-19T20:24:34;17.50;93.00
47368;DHT22;34646;47.964;7.982;2023-04-19T20:30:37;17.40;92.90
47368;DHT22;34646;47.964;7.982;2023-04-19T20:36:38;17.20;92.80
47368;DHT22;34646;47.964;7.982;2023-04-19T20:42:40;17.50;92.80
47368;DHT22;34646;47.964;7.982;2023-04-19T20:48:41;17.50;87.10
47368;DHT22;34646;47.964;7.982;2023-04-19T20:54:41;17.60;92.70
47368;DHT22;34646;47.964;7.982;2023-04-19T21:00:42;16.90;92.50
47368;DHT22;34646;47.964;7.982;2023-04-19T21:06:43;17.20;92.60
47368;DHT22;34646;47.964;7.982;2023-04-19T21:12:43;17.50;92.70
47368;DHT22;34646;47.964;7.982;2023-04-19T21:18:44;17.00;92.50
47368;DHT22;34646;47.964;7.982;2023-04-19T21:24:45;17.30;92.60
47368;DHT22;34646;47.964;7.982;2023-04-19T21:30:45;17.50;92.00
47368;DHT22;34646;47.964;7.982;2023-04-19T21:36:46;17.30;92.50
47368;DHT22;34646;47.964;7.982;2023-04-19T21:42:47;17.30;92.50
47368;DHT22;34646;47.964;7.982;2023-04-19T21:48:47;17.10;92.40
47368;DHT22;34646;47.964;7.982;2023-04-19T21:54:48;17.00;92.40
47368;DHT22;34646;47.964;7.982;2023-04-19T22:00:49;17.30;92.50
47368;DHT22;34646;47.964;7.982;2023-04-19T22:06:50;17.30;90.20
47368;DHT22;34646;47.964;7.982;2023-04-19T22:12:50;16.90;92.30
47368;DHT22;34646;47.964;7.982;2023-04-19T22:18:53;17.00;92.30
47368;DHT22;34646;47.964;7.982;2023-04-19T22:24:54;16.90;92.30
47368;DHT22;34646;47.964;7.982;2023-04-19T22:30:55;16.90;91.10
47368;DHT22;34646;47.964;7.982;2023-04-19T22:36:56;17.10;92.30
47368;DHT22;34646;47.964;7.982;2023-04-19T22:42:56;17.30;92.40
47368;DHT22;34646;47.964;7.982;2023-04-19T22:48:57;17.20;92.30
47368;DHT22;34646;47.964;7.982;2023-04-19T22:54:58;17.00;92.30
47368;DHT22;34646;47.964;7.982;2023-04-19T23:00:58;16.80;92.20
47368;DHT22;34646;47.964;7.982;2023-04-19T23:06:59;17.10;92.30
47368;DHT22;34646;47.964;7.982;2023-04-19T23:13:00;16.80;92.20
47368;DHT22;34646;47.964;7.982;2023-04-19T23:19:00;16.90;92.20
47368;DHT22;34646;47.964;7.982;2023-04-19T23:25:02;16.90;92.20
47368;DHT22;34646;47.964;7.982;2023-04-19T23:31:03;16.90;86.90
47368;DHT22;34646;47.964;7.982;2023-04-19T23:43:04;16.80;92.10
47368;DHT22;34646;47.964;7.982;2023-04-19T23:49:06;17.00;92.20
